sensor_id;sensor_type;location;lat;lon;timestamp;P1;durP1;ratioP1;P2;durP2;ratioP2
74457;SDS011;62896;51.032;3.712;2022-12-20T00:00:15;3.8;;;2.2;;
74457;SDS011;62896;51.032;3.712;2022-12-20T00:03:34;3.8;;;2.2;;
74457;SDS011;62896;51.032;3.712;2022-12-20T00:06:54;3.8;;;2.2;;
74457;SDS011;62896;51.032;3.712;2022-12-20T00:10:14;3.8;;;2.2;;
74457;SDS011;62896;51.032;3.712;2022-12-20T00:13:35;6;;;2.8;;
74457;SDS011;62896;51.032;3.712;2022-12-20T00:16:54;6;;;2.8;;
74457;SDS011;62896;51.032;3.712;2022-12-20T00:20:14;6;;;2.8;;
74457;SDS011;62896;51.032;3.712;2022-12-20T00:23:35;6;;;2.8;;
74457;SDS011;62896;51.032;3.712;2022-12-20T00:26:54;6;;;2.8;;
74457;SDS011;62896;51.032;3.712;2022-12-20T00:30:15;6;;;2.8;;
74457;SDS011;62896;51.032;3.712;2022-12-20T00:33:35;6;;;2.8;;
74457;SDS011;62896;51.032;3.712;2022-12-20T00:36:54;5;;;3;;
74457;SDS011;62896;51.032;3.712;2022-12-20T00:40:15;5;;;3;;
74457;SDS011;62896;51.032;3.712;2022-12-20T00:43:35;5;;;3;;
74457;SDS011;62896;51.032;3.712;2022-12-20T00:46:54;5;;;3;;
74457;SDS011;62896;51.032;3.712;2022-12-20T00:50:14;5;;;3;;
74457;SDS011;62896;51.032;3.712;2022-12-20T00:53:35;5;;;3;;
74457;SDS011;62896;51.032;3.712;2022-12-20T00:56:54;5;;;3;;
74457;SDS011;62896;51.032;3.712;2022-12-20T01:00:15;5;;;3;;
74457;SDS011;62896;51.032;3.712;2022-12-20T01:03:34;6.9;;;3.5;;
74457;SDS011;62896;51.032;3.712;2022-12-20T01:06:54;6.9;;;3.5;;
74457;SDS011;62896;51.032;3.712;2022-12-20T01:10:15;6.9;;;3.5;;
74457;SDS011;62896;51.032;3.712;2022-12-20T01:13:35;6.9;;;3.5;;
74457;SDS011;62896;51.032;3.712;2022-12-20T01:16:54;6.9;;;3.5;;
74457;SDS011;62896;51.032;3.712;2022-12-20T01:20:14;6.9;;;3.5;;
74457;SDS011;62896;51.032;3.712;2022-12-20T01:23:35;6.9;;;3.5;;
74457;SDS011;62896;51.032;3.712;2022-12-20T01:26:54;6.2;;;3.3;;
74457;SDS011;62896;51.032;3.712;2022-12-20T01:30:15;6.2;;;3.3;;
74457;SDS011;62896;51.032;3.712;2022-12-20T01:33:34;6.2;;;3.3;;
74457;SDS011;62896;51.032;3.712;2022-12-20T01:36:54;6.2;;;3.3;;
74457;SDS011;62896;51.032;3.712;2022-12-20T01:40:15;6.2;;;3.3;;
74457;SDS011;62896;51.032;3.712;2022-12-20T01:43:51;6.2;;;3.3;;
74457;SDS011;62896;51.032;3.712;2022-12-20T01:46:54;6.2;;;3.3;;
74457;SDS011;62896;51.032;3.712;2022-12-20T01:50:15;6.2;;;3.3;;
74457;SDS011;62896;51.032;3.712;2022-12-20T01:53:35;5.2;;;2.7;;
74457;SDS011;62896;51.032;3.712;2022-12-20T01:56:55;5.2;;;2.7;;
74457;SDS011;62896;51.032;3.712;2022-12-20T02:00:15;5.2;;;2.7;;
74457;SDS011;62896;51.032;3.712;2022-12-20T02:03:34;5.2;;;2.7;;
74457;SDS011;62896;51.032;3.712;2022-12-20T02:06:54;5.2;;;2.7;;
74457;SDS011;62896;51.032;3.712;2022-12-20T02:10:14;5.2;;;2.7;;
74457;SDS011;62896;51.032;3.712;2022-12-20T02:13:36;5.2;;;2.7;;
74457;SDS011;62896;51.032;3.712;2022-12-20T02:16:56;4.6;;;2.4;;
74457;SDS011;62896;51.032;3.712;2022-12-20T02:20:22;4.6;;;2.4;;
74457;SDS011;62896;51.032;3.712;2022-12-20T02:23:42;4.6;;;2.4;;
74457;SDS011;62896;51.032;3.712;2022-12-20T02:26:59;4.6;;;2.4;;
74457;SDS011;62896;51.032;3.712;2022-12-20T02:30:15;4.6;;;2.4;;
74457;SDS011;62896;51.032;3.712;2022-12-20T02:33:34;4.6;;;2.4;;
74457;SDS011;62896;51.032;3.712;2022-12-20T02:36:55;4.6;;;2.4;;
74457;SDS011;62896;51.032;3.712;2022-12-20T02:40:16;4.6;;;2.4;;
74457;SDS011;62896;51.032;3.712;2022-12-20T02:43:35;8.8;;;2.9;;
74457;SDS011;62896;51.032;3.712;2022-12-20T02:46:55;8.8;;;2.9;;
74457;SDS011;62896;51.032;3.712;2022-12-20T02:50:16;8.8;;;2.9;;
74457;SDS011;62896;51.032;3.712;2022-12-20T02:53:35;8.8;;;2.9;;
74457;SDS011;62896;51.032;3.712;2022-12-20T02:56:55;8.8;;;2.9;;
74457;SDS011;62896;51.032;3.712;2022-12-20T03:00:16;8.8;;;2.9;;
74457;SDS011;62896;51.032;3.712;2022-12-20T03:03:35;8.8;;;2.9;;
74457;SDS011;62896;51.032;3.712;2022-12-20T03:06:55;6;;;2.6;;
74457;SDS011;62896;51.032;3.712;2022-12-20T03:10:15;6;;;2.6;;
74457;SDS011;62896;51.032;3.712;2022-12-20T03:13:35;6;;;2.6;;
74457;SDS011;62896;51.032;3.712;2022-12-20T03:16:55;6;;;2.6;;
74457;SDS011;62896;51.032;3.712;2022-12-20T03:20:15;6;;;2.6;;
74457;SDS011;62896;51.032;3.712;2022-12-20T03:23:35;6;;;2.6;;
74457;SDS011;62896;51.032;3.712;2022-12-20T03:26:55;6;;;2.6;;
74457;SDS011;62896;51.032;3.712;2022-12-20T03:30:15;6;;;2.6;;
74457;SDS011;62896;51.032;3.712;2022-12-20T03:33:35;8.7;;;2.8;;
74457;SDS011;62896;51.032;3.712;2022-12-20T03:36:55;8.7;;;2.8;;
74457;SDS011;62896;51.032;3.712;2022-12-20T03:40:15;8.7;;;2.8;;
74457;SDS011;62896;51.032;3.712;2022-12-20T03:43:35;8.7;;;2.8;;
74457;SDS011;62896;51.032;3.712;2022-12-20T03:46:55;8.7;;;2.8;;
74457;SDS011;62896;51.032;3.712;2022-12-20T03:50:15;8.7;;;2.8;;
74457;SDS011;62896;51.032;3.712;2022-12-20T03:53:35;8.7;;;2.8;;
74457;SDS011;62896;51.032;3.712;2022-12-20T03:56:55;3.9;;;2.3;;
74457;SDS011;62896;51.032;3.712;2022-12-20T04:00:15;3.9;;;2.3;;
74457;SDS011;62896;51.032;3.712;2022-12-20T04:03:35;3.9;;;2.3;;
74457;SDS011;62896;51.032;3.712;2022-12-20T04:06:55;3.9;;;2.3;;
74457;SDS011;62896;51.032;3.712;2022-12-20T04:10:15;3.9;;;2.3;;
74457;SDS011;62896;51.032;3.712;2022-12-20T04:13:35;3.9;;;2.3;;
74457;SDS011;62896;51.032;3.712;2022-12-20T04:16:55;3.9;;;2.3;;
74457;SDS011;62896;51.032;3.712;2022-12-20T04:20:15;3.9;;;2.3;;
74457;SDS011;62896;51.032;3.712;2022-12-20T04:23:35;4.7;;;2.1;;
74457;SDS011;62896;51.032;3.712;2022-12-20T04:26:55;4.7;;;2.1;;
74457;SDS011;62896;51.032;3.712;2022-12-20T04:30:15;4.7;;;2.1;;
74457;SDS011;62896;51.032;3.712;2022-12-20T04:33:35;4.7;;;2.1;;
74457;SDS011;62896;51.032;3.712;2022-12-20T04:36:55;4.7;;;2.1;;
74457;SDS011;62896;51.032;3.712;2022-12-20T04:40:15;4.7;;;2.1;;
74457;SDS011;62896;51.032;3.712;2022-12-20T04:43:35;4.7;;;2.1;;
74457;SDS011;62896;51.032;3.712;2022-12-20T04:46:55;6.6;;;2.4;;
74457;SDS011;62896;51.032;3.712;2022-12-20T04:50:15;6.6;;;2.4;;
74457;SDS011;62896;51.032;3.712;2022-12-20T04:53:35;6.6;;;2.4;;
74457;SDS011;62896;51.032;3.712;2022-12-20T04:56:55;6.6;;;2.4;;
74457;SDS011;62896;51.032;3.712;2022-12-20T05:00:15;6.6;;;2.4;;
74457;SDS011;62896;51.032;3.712;2022-12-20T05:03:35;6.6;;;2.4;;
74457;SDS011;62896;51.032;3.712;2022-12-20T05:06:55;6.6;;;2.4;;
74457;SDS011;62896;51.032;3.712;2022-12-20T05:10:15;6.6;;;2.4;;
74457;SDS011;62896;51.032;3.712;2022-12-20T05:13:35;4.4;;;2.3;;
74457;SDS011;62896;51.032;3.712;2022-12-20T05:16:55;4.4;;;2.3;;
74457;SDS011;62896;51.032;3.712;2022-12-20T05:20:15;4.4;;;2.3;;
74457;SDS011;62896;51.032;3.712;2022-12-20T05:23:35;4.4;;;2.3;;
74457;SDS011;62896;51.032;3.712;2022-12-20T05:26:55;4.4;;;2.3;;
74457;SDS011;62896;51.032;3.712;2022-12-20T05:30:15;4.4;;;2.3;;
74457;SDS011;62896;51.032;3.712;2022-12-20T05:33:35;4.4;;;2.3;;
74457;SDS011;62896;51.032;3.712;2022-12-20T05:36:55;4;;;1.7;;
74457;SDS011;62896;51.032;3.712;2022-12-20T05:40:15;4;;;1.7;;
74457;SDS011;62896;51.032;3.712;2022-12-20T05:43:35;4;;;1.7;;
74457;SDS011;62896;51.032;3.712;2022-12-20T05:46:55;4;;;1.7;;
74457;SDS011;62896;51.032;3.712;2022-12-20T05:50:15;4;;;1.7;;
74457;SDS011;62896;51.032;3.712;2022-12-20T05:53:35;4;;;1.7;;
74457;SDS011;62896;51.032;3.712;2022-12-20T05:56:55;4;;;1.7;;
74457;SDS011;62896;51.032;3.712;2022-12-20T06:00:15;4;;;1.7;;
74457;SDS011;62896;51.032;3.712;2022-12-20T06:03:35;6.6;;;1.7;;
74457;SDS011;62896;51.032;3.712;2022-12-20T06:06:55;6.6;;;1.7;;
74457;SDS011;62896;51.032;3.712;2022-12-20T06:10:15;6.6;;;1.7;;
74457;SDS011;62896;51.032;3.712;2022-12-20T06:13:35;6.6;;;1.7;;
74457;SDS011;62896;51.032;3.712;2022-12-20T06:16:55;6.6;;;1.7;;
74457;SDS011;62896;51.032;3.712;2022-12-20T06:20:15;6.6;;;1.7;;
74457;SDS011;62896;51.032;3.712;2022-12-20T06:23:35;6.6;;;1.7;;
74457;SDS011;62896;51.032;3.712;2022-12-20T06:26:55;3.8;;;1.8;;
74457;SDS011;62896;51.032;3.712;2022-12-20T06:30:15;3.8;;;1.8;;
74457;SDS011;62896;51.032;3.712;2022-12-20T06:33:35;3.8;;;1.8;;
74457;SDS011;62896;51.032;3.712;2022-12-20T06:36:55;3.8;;;1.8;;
74457;SDS011;62896;51.032;3.712;2022-12-20T06:40:15;3.8;;;1.8;;
74457;SDS011;62896;51.032;3.712;2022-12-20T06:43:35;3.8;;;1.8;;
74457;SDS011;62896;51.032;3.712;2022-12-20T06:46:55;3.8;;;1.8;;
74457;SDS011;62896;51.032;3.712;2022-12-20T06:50:15;3.8;;;1.8;;
74457;SDS011;62896;51.032;3.712;2022-12-20T06:53:35;3.7;;;1.8;;
74457;SDS011;62896;51.032;3.712;2022-12-20T06:56:55;3.7;;;1.8;;
74457;SDS011;62896;51.032;3.712;2022-12-20T07:00:15;3.7;;;1.8;;
74457;SDS011;62896;51.032;3.712;2022-12-20T07:03:35;3.7;;;1.8;;
74457;SDS011;62896;51.032;3.712;2022-12-20T07:06:55;3.7;;;1.8;;
74457;SDS011;62896;51.032;3.712;2022-12-20T07:10:15;3.7;;;1.8;;
74457;SDS011;62896;51.032;3.712;2022-12-20T07:13:35;3.7;;;1.8;;
74457;SDS011;62896;51.032;3.712;2022-12-20T07:16:55;3.3;;;1.7;;
74457;SDS011;62896;51.032;3.712;2022-12-20T07:20:15;3.3;;;1.7;;
74457;SDS011;62896;51.032;3.712;2022-12-20T07:23:35;3.3;;;1.7;;
74457;SDS011;62896;51.032;3.712;2022-12-20T07:26:55;3.3;;;1.7;;
74457;SDS011;62896;51.032;3.712;2022-12-20T07:30:15;3.3;;;1.7;;
74457;SDS011;62896;51.032;3.712;2022-12-20T07:33:35;3.3;;;1.7;;
74457;SDS011;62896;51.032;3.712;2022-12-20T07:36:55;3.3;;;1.7;;
74457;SDS011;62896;51.032;3.712;2022-12-20T07:40:15;3.3;;;1.7;;
74457;SDS011;62896;51.032;3.712;2022-12-20T07:43:35;7.1;;;2.1;;
74457;SDS011;62896;51.032;3.712;2022-12-20T07:46:55;7.1;;;2.1;;
74457;SDS011;62896;51.032;3.712;2022-12-20T07:50:15;7.1;;;2.1;;
74457;SDS011;62896;51.032;3.712;2022-12-20T07:53:36;7.1;;;2.1;;
74457;SDS011;62896;51.032;3.712;2022-12-20T07:56:55;7.1;;;2.1;;
74457;SDS011;62896;51.032;3.712;2022-12-20T08:00:15;7.1;;;2.1;;
74457;SDS011;62896;51.032;3.712;2022-12-20T08:03:35;7.1;;;2.1;;
74457;SDS011;62896;51.032;3.712;2022-12-20T08:06:55;5.5;;;2.2;;
74457;SDS011;62896;51.032;3.712;2022-12-20T08:10:15;5.5;;;2.2;;
74457;SDS011;62896;51.032;3.712;2022-12-20T08:13:35;5.5;;;2.2;;
74457;SDS011;62896;51.032;3.712;2022-12-20T08:16:55;5.5;;;2.2;;
74457;SDS011;62896;51.032;3.712;2022-12-20T08:20:15;5.5;;;2.2;;
74457;SDS011;62896;51.032;3.712;2022-12-20T08:23:35;5.5;;;2.2;;
74457;SDS011;62896;51.032;3.712;2022-12-20T08:26:55;5.5;;;2.2;;
74457;SDS011;62896;51.032;3.712;2022-12-20T08:30:15;5.5;;;2.2;;
74457;SDS011;62896;51.032;3.712;2022-12-20T08:33:35;5.5;;;1.9;;
74457;SDS011;62896;51.032;3.712;2022-12-20T08:36:55;5.5;;;1.9;;
74457;SDS011;62896;51.032;3.712;2022-12-20T08:40:15;5.5;;;1.9;;
74457;SDS011;62896;51.032;3.712;2022-12-20T08:43:35;5.5;;;1.9;;
74457;SDS011;62896;51.032;3.712;2022-12-20T08:46:55;5.5;;;1.9;;
74457;SDS011;62896;51.032;3.712;2022-12-20T08:50:15;5.5;;;1.9;;
74457;SDS011;62896;51.032;3.712;2022-12-20T08:53:35;5.5;;;1.9;;
74457;SDS011;62896;51.032;3.712;2022-12-20T08:56:55;5;;;1.8;;
74457;SDS011;62896;51.032;3.712;2022-12-20T09:00:15;5;;;1.8;;
74457;SDS011;62896;51.032;3.712;2022-12-20T09:03:35;5;;;1.8;;
74457;SDS011;62896;51.032;3.712;2022-12-20T09:06:55;5;;;1.8;;
74457;SDS011;62896;51.032;3.712;2022-12-20T09:10:15;5;;;1.8;;
74457;SDS011;62896;51.032;3.712;2022-12-20T09:13:35;5;;;1.8;;
74457;SDS011;62896;51.032;3.712;2022-12-20T09:16:55;5;;;1.8;;
74457;SDS011;62896;51.032;3.712;2022-12-20T09:20:15;5;;;1.8;;
74457;SDS011;62896;51.032;3.712;2022-12-20T09:23:35;6.1;;;1.8;;
74457;SDS011;62896;51.032;3.712;2022-12-20T09:26:55;6.1;;;1.8;;
74457;SDS011;62896;51.032;3.712;2022-12-20T09:30:15;6.1;;;1.8;;
74457;SDS011;62896;51.032;3.712;2022-12-20T09:33:35;6.1;;;1.8;;
74457;SDS011;62896;51.032;3.712;2022-12-20T09:36:55;6.1;;;1.8;;
74457;SDS011;62896;51.032;3.712;2022-12-20T09:40:16;6.1;;;1.8;;
74457;SDS011;62896;51.032;3.712;2022-12-20T09:43:35;6.1;;;1.8;;
74457;SDS011;62896;51.032;3.712;2022-12-20T09:46:56;4.2;;;2.1;;
74457;SDS011;62896;51.032;3.712;2022-12-20T09:50:15;4.2;;;2.1;;
74457;SDS011;62896;51.032;3.712;2022-12-20T09:53:36;4.2;;;2.1;;
74457;SDS011;62896;51.032;3.712;2022-12-20T09:56:57;4.2;;;2.1;;
74457;SDS011;62896;51.032;3.712;2022-12-20T10:00:15;4.2;;;2.1;;
74457;SDS011;62896;51.032;3.712;2022-12-20T10:03:35;4.2;;;2.1;;
74457;SDS011;62896;51.032;3.712;2022-12-20T10:07:00;4.2;;;2.1;;
74457;SDS011;62896;51.032;3.712;2022-12-20T10:10:22;4.2;;;2.1;;
74457;SDS011;62896;51.032;3.712;2022-12-20T10:13:37;4.8;;;2.3;;
74457;SDS011;62896;51.032;3.712;2022-12-20T10:16:56;4.8;;;2.3;;
74457;SDS011;62896;51.032;3.712;2022-12-20T10:20:21;4.8;;;2.3;;
74457;SDS011;62896;51.032;3.712;2022-12-20T10:23:36;4.8;;;2.3;;
74457;SDS011;62896;51.032;3.712;2022-12-20T10:26:55;4.8;;;2.3;;
74457;SDS011;62896;51.032;3.712;2022-12-20T10:30:16;4.8;;;2.3;;
74457;SDS011;62896;51.032;3.712;2022-12-20T10:33:35;4.8;;;2.3;;
74457;SDS011;62896;51.032;3.712;2022-12-20T10:37:09;7.8;;;2.9;;
74457;SDS011;62896;51.032;3.712;2022-12-20T10:40:18;7.8;;;2.9;;
74457;SDS011;62896;51.032;3.712;2022-12-20T10:43:43;7.8;;;2.9;;
74457;SDS011;62896;51.032;3.712;2022-12-20T10:46:55;7.8;;;2.9;;
74457;SDS011;62896;51.032;3.712;2022-12-20T10:50:16;7.8;;;2.9;;
74457;SDS011;62896;51.032;3.712;2022-12-20T10:53:35;7.8;;;2.9;;
74457;SDS011;62896;51.032;3.712;2022-12-20T10:56:56;7.8;;;2.9;;
74457;SDS011;62896;51.032;3.712;2022-12-20T11:00:26;7.8;;;2.9;;
74457;SDS011;62896;51.032;3.712;2022-12-20T11:03:35;7.7;;;3;;
74457;SDS011;62896;51.032;3.712;2022-12-20T11:06:55;7.7;;;3;;
74457;SDS011;62896;51.032;3.712;2022-12-20T11:10:16;7.7;;;3;;
74457;SDS011;62896;51.032;3.712;2022-12-20T11:13:35;7.7;;;3;;
74457;SDS011;62896;51.032;3.712;2022-12-20T11:16:55;7.7;;;3;;
74457;SDS011;62896;51.032;3.712;2022-12-20T11:20:24;7.7;;;3;;
74457;SDS011;62896;51.032;3.712;2022-12-20T11:23:36;7.7;;;3;;
74457;SDS011;62896;51.032;3.712;2022-12-20T11:26:58;9.1;;;3.5;;
74457;SDS011;62896;51.032;3.712;2022-12-20T11:30:16;9.1;;;3.5;;
74457;SDS011;62896;51.032;3.712;2022-12-20T11:33:39;9.1;;;3.5;;
74457;SDS011;62896;51.032;3.712;2022-12-20T11:37:02;9.1;;;3.5;;
74457;SDS011;62896;51.032;3.712;2022-12-20T11:40:17;9.1;;;3.5;;
74457;SDS011;62896;51.032;3.712;2022-12-20T11:43:43;9.1;;;3.5;;
74457;SDS011;62896;51.032;3.712;2022-12-20T11:46:58;9.1;;;3.5;;
74457;SDS011;62896;51.032;3.712;2022-12-20T11:50:26;9.1;;;3.5;;
74457;SDS011;62896;51.032;3.712;2022-12-20T11:53:36;7.5;;;4;;
74457;SDS011;62896;51.032;3.712;2022-12-20T11:56:56;7.5;;;4;;
74457;SDS011;62896;51.032;3.712;2022-12-20T12:00:15;7.5;;;4;;
74457;SDS011;62896;51.032;3.712;2022-12-20T12:03:35;7.5;;;4;;
74457;SDS011;62896;51.032;3.712;2022-12-20T12:06:56;7.5;;;4;;
74457;SDS011;62896;51.032;3.712;2022-12-20T12:10:16;7.5;;;4;;
74457;SDS011;62896;51.032;3.712;2022-12-20T12:13:35;7.5;;;4;;
74457;SDS011;62896;51.032;3.712;2022-12-20T12:16:56;7.6;;;4;;
74457;SDS011;62896;51.032;3.712;2022-12-20T12:20:19;7.6;;;4;;
74457;SDS011;62896;51.032;3.712;2022-12-20T12:23:36;7.6;;;4;;
74457;SDS011;62896;51.032;3.712;2022-12-20T12:26:56;7.6;;;4;;
74457;SDS011;62896;51.032;3.712;2022-12-20T12:30:15;7.6;;;4;;
74457;SDS011;62896;51.032;3.712;2022-12-20T12:33:36;7.6;;;4;;
74457;SDS011;62896;51.032;3.712;2022-12-20T12:37:31;7.6;;;4;;
74457;SDS011;62896;51.032;3.712;2022-12-20T12:40:20;7.6;;;4;;
74457;SDS011;62896;51.032;3.712;2022-12-20T12:43:40;6.2;;;4.1;;
74457;SDS011;62896;51.032;3.712;2022-12-20T12:46:57;6.2;;;4.1;;
74457;SDS011;62896;51.032;3.712;2022-12-20T12:50:17;6.2;;;4.1;;
74457;SDS011;62896;51.032;3.712;2022-12-20T12:53:35;6.2;;;4.1;;
74457;SDS011;62896;51.032;3.712;2022-12-20T12:56:58;6.2;;;4.1;;
74457;SDS011;62896;51.032;3.712;2022-12-20T13:00:46;6.2;;;4.1;;
74457;SDS011;62896;51.032;3.712;2022-12-20T13:03:37;6.2;;;4.1;;
74457;SDS011;62896;51.032;3.712;2022-12-20T13:06:57;7;;;3.9;;
74457;SDS011;62896;51.032;3.712;2022-12-20T13:11:27;7;;;3.9;;
74457;SDS011;62896;51.032;3.712;2022-12-20T13:13:35;7;;;3.9;;
74457;SDS011;62896;51.032;3.712;2022-12-20T13:20:19;7;;;3.9;;
74457;SDS011;62896;51.032;3.712;2022-12-20T13:23:35;7;;;3.9;;
74457;SDS011;62896;51.032;3.712;2022-12-20T13:26:55;7;;;3.9;;
74457;SDS011;62896;51.032;3.712;2022-12-20T13:30:24;7;;;3.9;;
74457;SDS011;62896;51.032;3.712;2022-12-20T13:33:37;6.9;;;4;;
74457;SDS011;62896;51.032;3.712;2022-12-20T13:36:57;6.9;;;4;;
74457;SDS011;62896;51.032;3.712;2022-12-20T13:40:17;6.9;;;4;;
74457;SDS011;62896;51.032;3.712;2022-12-20T13:43:36;6.9;;;4;;
74457;SDS011;62896;51.032;3.712;2022-12-20T13:46:57;6.9;;;4;;
74457;SDS011;62896;51.032;3.712;2022-12-20T13:50:25;6.9;;;4;;
74457;SDS011;62896;51.032;3.712;2022-12-20T13:53:35;6.9;;;4;;
74457;SDS011;62896;51.032;3.712;2022-12-20T13:56:55;8.9;;;4.7;;
74457;SDS011;62896;51.032;3.712;2022-12-20T14:00:16;8.9;;;4.7;;
74457;SDS011;62896;51.032;3.712;2022-12-20T14:03:39;8.9;;;4.7;;
74457;SDS011;62896;51.032;3.712;2022-12-20T14:06:55;8.9;;;4.7;;
74457;SDS011;62896;51.032;3.712;2022-12-20T14:10:16;8.9;;;4.7;;
74457;SDS011;62896;51.032;3.712;2022-12-20T14:13:35;8.9;;;4.7;;
74457;SDS011;62896;51.032;3.712;2022-12-20T14:16:55;8.9;;;4.7;;
74457;SDS011;62896;51.032;3.712;2022-12-20T14:20:16;8.9;;;4.7;;
74457;SDS011;62896;51.032;3.712;2022-12-20T14:23:36;7.7;;;4.7;;
74457;SDS011;62896;51.032;3.712;2022-12-20T14:26:55;7.7;;;4.7;;
74457;SDS011;62896;51.032;3.712;2022-12-20T14:30:23;7.7;;;4.7;;
74457;SDS011;62896;51.032;3.712;2022-12-20T14:33:36;7.7;;;4.7;;
74457;SDS011;62896;51.032;3.712;2022-12-20T14:37:16;7.7;;;4.7;;
74457;SDS011;62896;51.032;3.712;2022-12-20T14:40:16;7.7;;;4.7;;
74457;SDS011;62896;51.032;3.712;2022-12-20T14:43:35;7.7;;;4.7;;
74457;SDS011;62896;51.032;3.712;2022-12-20T14:46:55;9.3;;;5.2;;
74457;SDS011;62896;51.032;3.712;2022-12-20T14:50:16;9.3;;;5.2;;
74457;SDS011;62896;51.032;3.712;2022-12-20T14:53:35;9.3;;;5.2;;
74457;SDS011;62896;51.032;3.712;2022-12-20T14:56:55;9.3;;;5.2;;
74457;SDS011;62896;51.032;3.712;2022-12-20T15:00:19;9.3;;;5.2;;
74457;SDS011;62896;51.032;3.712;2022-12-20T15:03:35;9.3;;;5.2;;
74457;SDS011;62896;51.032;3.712;2022-12-20T15:06:55;9.3;;;5.2;;
74457;SDS011;62896;51.032;3.712;2022-12-20T15:10:15;9.3;;;5.2;;
74457;SDS011;62896;51.032;3.712;2022-12-20T15:13:36;11.3;;;6.4;;
74457;SDS011;62896;51.032;3.712;2022-12-20T15:16:55;11.3;;;6.4;;
74457;SDS011;62896;51.032;3.712;2022-12-20T15:20:15;11.3;;;6.4;;
74457;SDS011;62896;51.032;3.712;2022-12-20T15:23:35;11.3;;;6.4;;
74457;SDS011;62896;51.032;3.712;2022-12-20T15:26:55;11.3;;;6.4;;
74457;SDS011;62896;51.032;3.712;2022-12-20T15:30:15;11.3;;;6.4;;
74457;SDS011;62896;51.032;3.712;2022-12-20T15:33:36;11.3;;;6.4;;
74457;SDS011;62896;51.032;3.712;2022-12-20T15:36:55;12.6;;;7.7;;
74457;SDS011;62896;51.032;3.712;2022-12-20T15:40:15;12.6;;;7.7;;
74457;SDS011;62896;51.032;3.712;2022-12-20T15:43:36;12.6;;;7.7;;
74457;SDS011;62896;51.032;3.712;2022-12-20T15:46:55;12.6;;;7.7;;
74457;SDS011;62896;51.032;3.712;2022-12-20T15:50:15;12.6;;;7.7;;
74457;SDS011;62896;51.032;3.712;2022-12-20T15:53:35;12.6;;;7.7;;
74457;SDS011;62896;51.032;3.712;2022-12-20T15:56:56;12.6;;;7.7;;
74457;SDS011;62896;51.032;3.712;2022-12-20T16:00:15;12.6;;;7.7;;
74457;SDS011;62896;51.032;3.712;2022-12-20T16:03:35;11.2;;;7.1;;
74457;SDS011;62896;51.032;3.712;2022-12-20T16:06:55;11.2;;;7.1;;
74457;SDS011;62896;51.032;3.712;2022-12-20T16:10:15;11.2;;;7.1;;
74457;SDS011;62896;51.032;3.712;2022-12-20T16:13:35;11.2;;;7.1;;
74457;SDS011;62896;51.032;3.712;2022-12-20T16:16:55;11.2;;;7.1;;
74457;SDS011;62896;51.032;3.712;2022-12-20T16:20:15;11.2;;;7.1;;
74457;SDS011;62896;51.032;3.712;2022-12-20T16:23:35;11.2;;;7.1;;
74457;SDS011;62896;51.032;3.712;2022-12-20T16:26:55;12.8;;;8.6;;
74457;SDS011;62896;51.032;3.712;2022-12-20T16:30:15;12.8;;;8.6;;
74457;SDS011;62896;51.032;3.712;2022-12-20T16:33:35;12.8;;;8.6;;
74457;SDS011;62896;51.032;3.712;2022-12-20T16:36:55;12.8;;;8.6;;
74457;SDS011;62896;51.032;3.712;2022-12-20T16:40:15;12.8;;;8.6;;
74457;SDS011;62896;51.032;3.712;2022-12-20T16:43:35;12.8;;;8.6;;
74457;SDS011;62896;51.032;3.712;2022-12-20T16:46:55;12.8;;;8.6;;
74457;SDS011;62896;51.032;3.712;2022-12-20T16:50:15;12.8;;;8.6;;
74457;SDS011;62896;51.032;3.712;2022-12-20T16:53:35;13.4;;;9.3;;
74457;SDS011;62896;51.032;3.712;2022-12-20T16:56:55;13.4;;;9.3;;
74457;SDS011;62896;51.032;3.712;2022-12-20T17:00:16;13.4;;;9.3;;
74457;SDS011;62896;51.032;3.712;2022-12-20T17:03:35;13.4;;;9.3;;
74457;SDS011;62896;51.032;3.712;2022-12-20T17:06:55;13.4;;;9.3;;
74457;SDS011;62896;51.032;3.712;2022-12-20T17:10:15;13.4;;;9.3;;
74457;SDS011;62896;51.032;3.712;2022-12-20T17:13:35;13.4;;;9.3;;
74457;SDS011;62896;51.032;3.712;2022-12-20T17:16:55;21.6;;;13.7;;
74457;SDS011;62896;51.032;3.712;2022-12-20T17:20:15;21.6;;;13.7;;
74457;SDS011;62896;51.032;3.712;2022-12-20T17:23:35;21.6;;;13.7;;
74457;SDS011;62896;51.032;3.712;2022-12-20T17:26:55;21.6;;;13.7;;
74457;SDS011;62896;51.032;3.712;2022-12-20T17:30:15;21.6;;;13.7;;
74457;SDS011;62896;51.032;3.712;2022-12-20T17:33:35;21.6;;;13.7;;
74457;SDS011;62896;51.032;3.712;2022-12-20T17:36:56;21.6;;;13.7;;
74457;SDS011;62896;51.032;3.712;2022-12-20T17:40:15;21.6;;;13.7;;
74457;SDS011;62896;51.032;3.712;2022-12-20T17:43:35;17.4;;;12.7;;
74457;SDS011;62896;51.032;3.712;2022-12-20T17:46:55;17.4;;;12.7;;
74457;SDS011;62896;51.032;3.712;2022-12-20T17:50:15;17.4;;;12.7;;
74457;SDS011;62896;51.032;3.712;2022-12-20T17:53:35;17.4;;;12.7;;
74457;SDS011;62896;51.032;3.712;2022-12-20T17:56:55;17.4;;;12.7;;
74457;SDS011;62896;51.032;3.712;2022-12-20T18:00:24;17.4;;;12.7;;
74457;SDS011;62896;51.032;3.712;2022-12-20T18:03:35;17.4;;;12.7;;
74457;SDS011;62896;51.032;3.712;2022-12-20T18:06:55;19.9;;;15.1;;
74457;SDS011;62896;51.032;3.712;2022-12-20T18:10:15;19.9;;;15.1;;
74457;SDS011;62896;51.032;3.712;2022-12-20T18:13:35;19.9;;;15.1;;
74457;SDS011;62896;51.032;3.712;2022-12-20T18:16:55;19.9;;;15.1;;
74457;SDS011;62896;51.032;3.712;2022-12-20T18:20:15;19.9;;;15.1;;
74457;SDS011;62896;51.032;3.712;2022-12-20T18:23:36;19.9;;;15.1;;
74457;SDS011;62896;51.032;3.712;2022-12-20T18:26:55;19.9;;;15.1;;
74457;SDS011;62896;51.032;3.712;2022-12-20T18:30:15;19.9;;;15.1;;
74457;SDS011;62896;51.032;3.712;2022-12-20T18:33:35;21.2;;;15.8;;
74457;SDS011;62896;51.032;3.712;2022-12-20T18:36:55;21.2;;;15.8;;
74457;SDS011;62896;51.032;3.712;2022-12-20T18:40:15;21.2;;;15.8;;
74457;SDS011;62896;51.032;3.712;2022-12-20T18:43:35;21.2;;;15.8;;
74457;SDS011;62896;51.032;3.712;2022-12-20T18:46:55;21.2;;;15.8;;
74457;SDS011;62896;51.032;3.712;2022-12-20T18:50:15;21.2;;;15.8;;
74457;SDS011;62896;51.032;3.712;2022-12-20T18:53:35;21.2;;;15.8;;
74457;SDS011;62896;51.032;3.712;2022-12-20T18:56:55;23.5;;;18.4;;
74457;SDS011;62896;51.032;3.712;2022-12-20T19:00:15;23.5;;;18.4;;
74457;SDS011;62896;51.032;3.712;2022-12-20T19:03:35;23.5;;;18.4;;
74457;SDS011;62896;51.032;3.712;2022-12-20T19:06:55;23.5;;;18.4;;
74457;SDS011;62896;51.032;3.712;2022-12-20T19:10:15;23.5;;;18.4;;
74457;SDS011;62896;51.032;3.712;2022-12-20T19:13:35;23.5;;;18.4;;
74457;SDS011;62896;51.032;3.712;2022-12-20T19:16:55;23.5;;;18.4;;
74457;SDS011;62896;51.032;3.712;2022-12-20T19:20:15;23.5;;;18.4;;
74457;SDS011;62896;51.032;3.712;2022-12-20T19:23:35;22.7;;;18.3;;
74457;SDS011;62896;51.032;3.712;2022-12-20T19:26:55;22.7;;;18.3;;
74457;SDS011;62896;51.032;3.712;2022-12-20T19:30:15;22.7;;;18.3;;
74457;SDS011;62896;51.032;3.712;2022-12-20T19:33:35;22.7;;;18.3;;
74457;SDS011;62896;51.032;3.712;2022-12-20T19:36:55;22.7;;;18.3;;
74457;SDS011;62896;51.032;3.712;2022-12-20T19:40:15;22.7;;;18.3;;
74457;SDS011;62896;51.032;3.712;2022-12-20T19:43:35;22.7;;;18.3;;
74457;SDS011;62896;51.032;3.712;2022-12-20T19:46:55;23.7;;;18.5;;
74457;SDS011;62896;51.032;3.712;2022-12-20T19:50:15;23.7;;;18.5;;
74457;SDS011;62896;51.032;3.712;2022-12-20T19:53:35;23.7;;;18.5;;
74457;SDS011;62896;51.032;3.712;2022-12-20T19:56:55;23.7;;;18.5;;
74457;SDS011;62896;51.032;3.712;2022-12-20T20:00:15;23.7;;;18.5;;
74457;SDS011;62896;51.032;3.712;2022-12-20T20:03:35;23.7;;;18.5;;
74457;SDS011;62896;51.032;3.712;2022-12-20T20:06:55;23.7;;;18.5;;
74457;SDS011;62896;51.032;3.712;2022-12-20T20:10:15;23.7;;;18.5;;
74457;SDS011;62896;51.032;3.712;2022-12-20T20:13:35;27.3;;;21.8;;
74457;SDS011;62896;51.032;3.712;2022-12-20T20:16:55;27.3;;;21.8;;
74457;SDS011;62896;51.032;3.712;2022-12-20T20:20:15;27.3;;;21.8;;
74457;SDS011;62896;51.032;3.712;2022-12-20T20:23:35;27.3;;;21.8;;
74457;SDS011;62896;51.032;3.712;2022-12-20T20:26:55;27.3;;;21.8;;
74457;SDS011;62896;51.032;3.712;2022-12-20T20:30:15;27.3;;;21.8;;
74457;SDS011;62896;51.032;3.712;2022-12-20T20:33:35;27.3;;;21.8;;
74457;SDS011;62896;51.032;3.712;2022-12-20T20:36:55;22.9;;;16.3;;
74457;SDS011;62896;51.032;3.712;2022-12-20T20:40:15;22.9;;;16.3;;
74457;SDS011;62896;51.032;3.712;2022-12-20T20:43:35;22.9;;;16.3;;